Aérodrome :
LOGIN :

S'inscrire | Disclaimer

   EN    FR    IT 

 










Légende :    VFR   VFR Marginal   IFR   IFR Intensif   IFR Très Intensif
Visi : 
Plafond : 
>= 8 km
>= 3000ft
5 à 8 km
1000 à 3000 ft
1500m à 5 km
500 à 1000 ft
800 à 1500m
200 à 500 ft
< 800m
< 200 ft
Symboles :   Orages  Brouillard  Fortes neiges  Fortes précipitations  Vent > 20 kt
SIGMETs :   Divers  Orages  Givrage  Turbulence  Onde Orograph.  Cendres Volcan.






- Altitude de l'aérodrome : 287 ft


LFRL - Lanveoc Poulmic

DERNIER METAR :
  • 241830Z AUTO 30010KT 9999 FEW026 14/09 Q1014 NOSIG

METARs EXPIRÉS :
  • 241800Z AUTO 28012KT 9999 SCT031 SCT037 15/09 Q1014 NOSIG
  • 241730Z AUTO 29011KT 9999 FEW032 15/09 Q1013 NOSIG
  • 241700Z AUTO 29011KT 9999 FEW032 16/09 Q1013 TEMPO 4000 SHRA BKN015TCU
  • 241630Z AUTO 28012KT CAVOK 16/09 Q1013 TEMPO 4000 SHRA BKN015TCU
  • 241600Z AUTO 28012KT 9999 FEW031 SCT056 16/08 Q1013 TEMPO 4000 SHRA BKN015TCU

TAF TAF LFRL
Valide du 24 à 12h jusqu'au 25 à 12h UTC


241100Z 2412/2512 28013KT 9999 SCT030
TEMPO 2412/2418 4000 SHRA BKN015TCU
BECMG 2503/2506 4500 RA SCT008 BKN012



MET'MAP, la Météo Aéronautique d'un coup d'oeil ! - Copyright ORBIFLY Décembre 2007 - Disclaimer

ORBIFLY MET'MAP TEAM :

Programmation & Développement : Alexandra Zaïnal
Sur une idée originale de : Baudouin d'Aumeries
Soutien technique & logistique : Manuel Goepfert
Assistance : Marc-Olivier Méhu

Contact : metmap@orbifly.com




SOURCES & CREDITS :

   NOAA